createdAt,value
2019-02-27T00:00:45.410Z,96863
2019-02-27T00:01:54.907Z,96863
2019-02-27T00:03:04.518Z,96867
2019-02-27T00:04:14.294Z,96866
2019-02-27T00:05:23.919Z,96868
2019-02-27T00:06:33.420Z,96865
2019-02-27T00:07:42.918Z,96862
2019-02-27T00:08:52.417Z,96857
2019-02-27T00:10:05.817Z,96859
2019-02-27T00:11:12.976Z,96857
2019-02-27T00:12:21.898Z,96853
2019-02-27T00:13:31.446Z,96853
2019-02-27T00:14:40.949Z,96853
2019-02-27T00:15:50.469Z,96847
2019-02-27T00:16:59.974Z,96852
2019-02-27T00:18:10.467Z,96849
2019-02-27T00:19:19.985Z,96847
2019-02-27T00:20:29.507Z,96846
2019-02-27T00:21:40.841Z,96845
2019-02-27T00:22:50.565Z,96844
2019-02-27T00:23:58.973Z,96849
2019-02-27T00:25:08.478Z,96848
2019-02-27T00:26:17.997Z,96851
2019-02-27T00:27:27.502Z,96859
2019-02-27T00:28:37.033Z,96852
2019-02-27T00:29:46.534Z,96855
2019-02-27T00:30:56.045Z,96850
2019-02-27T00:32:05.549Z,96847
2019-02-27T00:33:15.052Z,96846
2019-02-27T00:34:25.545Z,96850
2019-02-27T00:35:38.610Z,96853
2019-02-27T00:36:45.729Z,96851
2019-02-27T00:37:55.113Z,96857
2019-02-27T00:39:04.608Z,96853
2019-02-27T00:40:14.113Z,96857
2019-02-27T00:41:23.626Z,96852
2019-02-27T00:42:33.851Z,96853
2019-02-27T00:43:42.727Z,96856
2019-02-27T00:44:52.212Z,96853
2019-02-27T00:46:01.729Z,96851
2019-02-27T00:47:11.292Z,96848
2019-02-27T00:48:25.946Z,96850
2019-02-27T00:49:32.318Z,96850
2019-02-27T00:50:40.771Z,96844
2019-02-27T00:51:50.277Z,96840
2019-02-27T00:52:59.777Z,96843
2019-02-27T00:54:09.279Z,96843
2019-02-27T00:55:18.788Z,96843
2019-02-27T00:56:28.309Z,96838
2019-02-27T00:57:37.803Z,96835
2019-02-27T00:58:47.309Z,96833
2019-02-27T00:59:56.821Z,96831
2019-02-27T01:01:07.320Z,96830
2019-02-27T01:02:19.893Z,96829
2019-02-27T01:03:26.808Z,96831
2019-02-27T01:04:35.783Z,96827
2019-02-27T01:05:45.285Z,96824
2019-02-27T01:06:54.835Z,96825
2019-02-27T01:08:04.324Z,96824
2019-02-27T01:09:13.823Z,96825
2019-02-27T01:10:23.328Z,96827
2019-02-27T01:11:32.857Z,96824
2019-02-27T01:12:42.368Z,96825
2019-02-27T01:13:51.865Z,96824
2019-02-27T01:15:01.366Z,96818
2019-02-27T01:16:11.884Z,96823
2019-02-27T01:17:23.718Z,96819
2019-02-27T01:18:31.394Z,96811
2019-02-27T01:19:42.492Z,96811
2019-02-27T01:20:49.843Z,96808
2019-02-27T01:21:59.367Z,96810
2019-02-27T01:23:11.036Z,96811
2019-02-27T01:24:18.346Z,96810
2019-02-27T01:25:27.844Z,96808
2019-02-27T01:26:37.357Z,96809
2019-02-27T01:27:46.864Z,96811
2019-02-27T01:28:56.372Z,96810
2019-02-27T01:30:05.871Z,96808
2019-02-27T01:31:15.374Z,96807
2019-02-27T01:32:25.884Z,96805
2019-02-27T01:33:38.090Z,96802
2019-02-27T01:34:45.078Z,96800
2019-02-27T01:35:54.357Z,96801
2019-02-27T01:37:03.868Z,96797
2019-02-27T01:38:13.500Z,96789
2019-02-27T01:39:23.003Z,96797
2019-02-27T01:40:32.504Z,96791
2019-02-27T01:41:42.015Z,96786
2019-02-27T01:42:51.518Z,96786
2019-02-27T01:44:01.062Z,96789
2019-02-27T01:45:10.564Z,96791
2019-02-27T01:46:21.089Z,96785
2019-02-27T01:47:35.614Z,96787
2019-02-27T01:48:43.558Z,96788
2019-02-27T01:49:50.534Z,96782
2019-02-27T01:51:00.028Z,96785
2019-02-27T01:52:09.539Z,96783
2019-02-27T01:53:19.062Z,96784
2019-02-27T01:54:28.566Z,96786
2019-02-27T01:55:38.090Z,96783
2019-02-27T01:56:47.605Z,96785
2019-02-27T01:57:57.107Z,96786
2019-02-27T01:59:06.607Z,96783
2019-02-27T02:00:17.095Z,96784
2019-02-27T02:01:29.735Z,96780
2019-02-27T02:02:37.330Z,96774
2019-02-27T02:03:47.448Z,96777
2019-02-27T02:04:55.042Z,96774
2019-02-27T02:06:04.542Z,96772
2019-02-27T02:07:14.073Z,96776
2019-02-27T02:08:23.588Z,96771
2019-02-27T02:09:33.086Z,96772
2019-02-27T02:10:42.598Z,96773
2019-02-27T02:11:52.125Z,96770
2019-02-27T02:13:01.621Z,96769
2019-02-27T02:14:11.127Z,96764
2019-02-27T02:15:21.625Z,96765
2019-02-27T02:16:34.078Z,96765
2019-02-27T02:17:40.990Z,96763
2019-02-27T02:18:50.102Z,96761
2019-02-27T02:19:59.600Z,96756
2019-02-27T02:21:09.101Z,96756
2019-02-27T02:22:18.622Z,96755
2019-02-27T02:23:28.124Z,96754
2019-02-27T02:24:37.627Z,96748
2019-02-27T02:25:47.124Z,96749
2019-02-27T02:26:56.627Z,96742
2019-02-27T02:28:06.140Z,96746
2019-02-27T02:29:17.858Z,96741
2019-02-27T02:30:29.705Z,96754
2019-02-27T02:31:40.716Z,96758
2019-02-27T02:32:45.081Z,96751
2019-02-27T02:33:55.560Z,96753
2019-02-27T02:35:06.039Z,96754
2019-02-27T02:36:16.529Z,96752
2019-02-27T02:37:27.019Z,96742
2019-02-27T02:38:37.508Z,96742
2019-02-27T02:39:47.017Z,96738
2019-02-27T02:40:57.495Z,96740
2019-02-27T02:42:07.983Z,96735
2019-02-27T02:43:17.493Z,96736
2019-02-27T02:44:27.003Z,96737
2019-02-27T02:45:36.502Z,96740
2019-02-27T02:46:46.373Z,96737
2019-02-27T02:47:56.715Z,96736
2019-02-27T02:49:07.795Z,96736
2019-02-27T02:50:17.362Z,96732
2019-02-27T02:51:28.523Z,96730
2019-02-27T02:52:40.128Z,96729
2019-02-27T02:53:43.945Z,96731
2019-02-27T02:54:53.429Z,96735
2019-02-27T02:56:02.931Z,96734
2019-02-27T02:57:12.433Z,96729
2019-02-27T02:58:21.945Z,96731
2019-02-27T02:59:31.447Z,96730
2019-02-27T03:00:40.971Z,96726
2019-02-27T03:01:50.463Z,96725
2019-02-27T03:03:00.756Z,96723
2019-02-27T03:04:12.438Z,96722
2019-02-27T03:05:23.000Z,96719
2019-02-27T03:06:34.365Z,96722
2019-02-27T03:07:44.415Z,96716
2019-02-27T03:08:48.412Z,96719
2019-02-27T03:09:58.901Z,96720
2019-02-27T03:11:09.421Z,96717
2019-02-27T03:12:19.899Z,96718
2019-02-27T03:13:30.403Z,96721
2019-02-27T03:14:40.891Z,96720
2019-02-27T03:15:51.400Z,96719
2019-02-27T03:17:01.943Z,96720
2019-02-27T03:18:11.467Z,96719
2019-02-27T03:19:20.978Z,96717
2019-02-27T03:20:30.483Z,96718
2019-02-27T03:21:39.987Z,96716
2019-02-27T03:22:49.500Z,96714
2019-02-27T03:24:00.006Z,96713
2019-02-27T03:25:09.505Z,96713
2019-02-27T03:26:19.014Z,96710
2019-02-27T03:27:30.493Z,96711
2019-02-27T03:28:40.883Z,96711
2019-02-27T03:29:51.889Z,96705
2019-02-27T03:30:57.008Z,96702
2019-02-27T03:32:06.500Z,96702
2019-02-27T03:33:22.654Z,96696
2019-02-27T03:34:26.509Z,96699
2019-02-27T03:35:36.002Z,96704
2019-02-27T03:36:45.499Z,96701
2019-02-27T03:37:54.998Z,96703
2019-02-27T03:39:04.519Z,96705
2019-02-27T03:40:14.018Z,96704
2019-02-27T03:41:23.735Z,96704
2019-02-27T03:42:34.091Z,96701
2019-02-27T03:43:45.612Z,96708
2019-02-27T03:44:55.691Z,96707
2019-02-27T03:46:02.932Z,96709
2019-02-27T03:47:15.390Z,96709
2019-02-27T03:48:20.503Z,96708
2019-02-27T03:49:31.006Z,96710
2019-02-27T03:50:41.495Z,96706
2019-02-27T03:51:51.989Z,96712
2019-02-27T03:53:02.456Z,96710
2019-02-27T03:54:12.954Z,96713
2019-02-27T03:55:23.439Z,96712
2019-02-27T03:56:33.920Z,96715
2019-02-27T03:57:44.402Z,96707
2019-02-27T03:58:54.898Z,96712
2019-02-27T04:00:05.439Z,96708
2019-02-27T04:01:15.926Z,96709
2019-02-27T04:02:25.422Z,96711
2019-02-27T04:03:34.929Z,96713
2019-02-27T04:04:44.443Z,96716
2019-02-27T04:05:53.943Z,96711
2019-02-27T04:07:03.451Z,96713
2019-02-27T04:08:12.950Z,96713
2019-02-27T04:09:22.474Z,96714
2019-02-27T04:10:32.253Z,96716
2019-02-27T04:11:42.756Z,96712
2019-02-27T04:12:51.609Z,96714
2019-02-27T04:14:04.628Z,96711
2019-02-27T04:15:09.933Z,96709
2019-02-27T04:16:20.408Z,96710
2019-02-27T04:17:30.892Z,96709
2019-02-27T04:18:40.399Z,96703
2019-02-27T04:19:49.942Z,96707
2019-02-27T04:20:59.463Z,96707
2019-02-27T04:22:08.979Z,96709
2019-02-27T04:23:18.482Z,96703
2019-02-27T04:24:27.989Z,96705
2019-02-27T04:25:37.516Z,96707
2019-02-27T04:26:47.021Z,96708
2019-02-27T04:27:56.554Z,96714
2019-02-27T04:29:08.378Z,96709
2019-02-27T04:30:15.671Z,96709
2019-02-27T04:31:29.424Z,96708
2019-02-27T04:32:34.532Z,96709
2019-02-27T04:33:44.050Z,96711
2019-02-27T04:34:53.578Z,96706
2019-02-27T04:36:03.094Z,96703
2019-02-27T04:37:13.605Z,96705
2019-02-27T04:38:24.973Z,96706
2019-02-27T04:39:35.740Z,96706
2019-02-27T04:40:44.117Z,96705
2019-02-27T04:41:52.770Z,96699
2019-02-27T04:43:02.096Z,96706
2019-02-27T04:44:11.633Z,96706
2019-02-27T04:45:21.143Z,96706
2019-02-27T04:46:30.666Z,96708
2019-02-27T04:47:40.191Z,96707
2019-02-27T04:48:49.711Z,96711
2019-02-27T04:49:59.268Z,96701
2019-02-27T04:51:08.719Z,96702
2019-02-27T04:52:19.234Z,96706
2019-02-27T04:53:31.453Z,96703
2019-02-27T04:54:41.225Z,96705
2019-02-27T04:55:47.955Z,96707
2019-02-27T04:56:57.626Z,96708
2019-02-27T04:58:08.973Z,96708
2019-02-27T04:59:18.586Z,96709
2019-02-27T05:00:26.217Z,96712
2019-02-27T05:01:36.619Z,96704
2019-02-27T05:02:44.792Z,96706
2019-02-27T05:03:55.313Z,96712
2019-02-27T05:05:06.093Z,96704
2019-02-27T05:06:15.086Z,96704
2019-02-27T05:07:23.835Z,96705
2019-02-27T05:08:33.342Z,96703
2019-02-27T05:09:42.865Z,96706
2019-02-27T05:10:52.374Z,96710
2019-02-27T05:12:01.897Z,96713
2019-02-27T05:13:11.406Z,96712
2019-02-27T05:14:22.015Z,96710
2019-02-27T05:15:31.511Z,96711
2019-02-27T05:16:42.007Z,96708
2019-02-27T05:17:53.005Z,96705
2019-02-27T05:19:03.956Z,96702
2019-02-27T05:20:12.541Z,96703
2019-02-27T05:21:20.997Z,96704
2019-02-27T05:22:30.520Z,96703
2019-02-27T05:23:40.026Z,96706
2019-02-27T05:24:49.527Z,96706
2019-02-27T05:25:59.087Z,96703
2019-02-27T05:27:08.618Z,96702
2019-02-27T05:28:18.122Z,96701
2019-02-27T05:29:27.627Z,96704
2019-02-27T05:30:38.124Z,96702
2019-02-27T05:31:50.099Z,96707
2019-02-27T05:33:01.596Z,96707
2019-02-27T05:34:12.344Z,96705
2019-02-27T05:35:17.094Z,96709
2019-02-27T05:36:28.942Z,96714
2019-02-27T05:37:39.123Z,96710
2019-02-27T05:38:46.592Z,96708
2019-02-27T05:39:56.120Z,96715
2019-02-27T05:41:05.625Z,96715
2019-02-27T05:42:15.143Z,96715
2019-02-27T05:43:24.650Z,96714
2019-02-27T05:44:34.196Z,96715
2019-02-27T05:45:43.713Z,96717
2019-02-27T05:46:53.257Z,96713
2019-02-27T05:48:02.766Z,96717
2019-02-27T05:49:12.267Z,96710
2019-02-27T05:50:21.779Z,96715
2019-02-27T05:51:31.304Z,96713
2019-02-27T05:52:40.831Z,96717
2019-02-27T05:53:51.313Z,96715
2019-02-27T05:55:05.895Z,96716
2019-02-27T05:56:15.241Z,96720
2019-02-27T05:57:23.199Z,96718
2019-02-27T05:58:30.472Z,96719
2019-02-27T05:59:40.029Z,96715
2019-02-27T06:00:49.584Z,96718
2019-02-27T06:01:59.166Z,96725
2019-02-27T06:03:08.716Z,96723
2019-02-27T06:04:19.308Z,96729
2019-02-27T06:05:28.857Z,96729
2019-02-27T06:06:39.391Z,96731
2019-02-27T06:07:48.971Z,96731
2019-02-27T06:08:58.547Z,96731
2019-02-27T06:10:08.198Z,96730
2019-02-27T06:11:17.633Z,96731
2019-02-27T06:12:27.235Z,96735
2019-02-27T06:13:36.817Z,96736
2019-02-27T06:14:47.387Z,96732
2019-02-27T06:16:02.527Z,96737
2019-02-27T06:17:10.062Z,96735
2019-02-27T06:18:22.301Z,96736
2019-02-27T06:19:27.622Z,96734
2019-02-27T06:20:38.915Z,96731
2019-02-27T06:21:46.745Z,96735
2019-02-27T06:22:57.332Z,96732
2019-02-27T06:24:11.484Z,96729
2019-02-27T06:25:21.461Z,96731
2019-02-27T06:26:26.952Z,96727
2019-02-27T06:27:37.150Z,96732
2019-02-27T06:28:46.112Z,96731
2019-02-27T06:29:56.949Z,96733
2019-02-27T06:31:05.238Z,96731
2019-02-27T06:32:14.806Z,96728
2019-02-27T06:33:24.438Z,96731
2019-02-27T06:34:34.026Z,96728
2019-02-27T06:35:43.582Z,96725
2019-02-27T06:36:53.131Z,96730
2019-02-27T06:38:02.764Z,96729
2019-02-27T06:39:12.359Z,96729
2019-02-27T06:40:21.909Z,96731
2019-02-27T06:41:31.545Z,96736
2019-02-27T06:42:42.098Z,96737
2019-02-27T06:43:51.676Z,96732
2019-02-27T06:45:02.215Z,96732
2019-02-27T06:46:12.756Z,96733
2019-02-27T06:47:23.333Z,96733
2019-02-27T06:48:32.928Z,96733
2019-02-27T06:49:43.495Z,96731
2019-02-27T06:50:54.036Z,96736
2019-02-27T06:52:08.945Z,96734
2019-02-27T06:53:16.369Z,96737
2019-02-27T06:54:23.692Z,96736
2019-02-27T06:55:33.922Z,96732
2019-02-27T06:56:42.806Z,96738
2019-02-27T06:57:52.384Z,96742
2019-02-27T06:59:02.027Z,96738
2019-02-27T07:00:11.592Z,96736
2019-02-27T07:01:21.166Z,96735
2019-02-27T07:02:30.722Z,96739
2019-02-27T07:03:40.349Z,96743
2019-02-27T07:04:49.909Z,96744
2019-02-27T07:05:59.511Z,96738
2019-02-27T07:07:09.112Z,96744
2019-02-27T07:08:18.682Z,96740
2019-02-27T07:09:28.224Z,96740
2019-02-27T07:10:37.821Z,96748
2019-02-27T07:11:48.904Z,96744
2019-02-27T07:12:56.914Z,96744
2019-02-27T07:14:06.507Z,96741
2019-02-27T07:15:16.132Z,96737
2019-02-27T07:16:25.715Z,96740
2019-02-27T07:17:35.295Z,96737
2019-02-27T07:18:44.907Z,96733
2019-02-27T07:19:54.519Z,96735
2019-02-27T07:21:04.049Z,96741
2019-02-27T07:22:13.650Z,96740
2019-02-27T07:23:23.810Z,96741
2019-02-27T07:24:33.566Z,96740
2019-02-27T07:25:42.859Z,96744
2019-02-27T07:26:52.024Z,96743
2019-02-27T07:28:03.433Z,96741
2019-02-27T07:29:21.073Z,96744
2019-02-27T07:30:23.794Z,96742
2019-02-27T07:31:32.290Z,96745
2019-02-27T07:32:41.841Z,96743
2019-02-27T07:33:51.444Z,96743
2019-02-27T07:35:01.004Z,96735
2019-02-27T07:36:10.554Z,96739
2019-02-27T07:37:20.123Z,96742
2019-02-27T07:38:29.747Z,96743
2019-02-27T07:39:39.348Z,96743
2019-02-27T07:40:48.912Z,96741
2019-02-27T07:41:58.473Z,96742
2019-02-27T07:43:08.061Z,96741
2019-02-27T07:44:17.690Z,96745
2019-02-27T07:45:27.255Z,96746
2019-02-27T07:46:36.796Z,96739
2019-02-27T07:47:46.355Z,96736
2019-02-27T07:48:56.674Z,96730
2019-02-27T07:50:07.205Z,96728
2019-02-27T07:51:15.023Z,96724
2019-02-27T07:52:25.581Z,96727
2019-02-27T07:53:36.093Z,96727
2019-02-27T07:54:45.695Z,96727
2019-02-27T07:55:55.256Z,96729
2019-02-27T07:57:04.845Z,96730
2019-02-27T07:58:14.431Z,96732
2019-02-27T07:59:23.998Z,96731
2019-02-27T08:00:33.560Z,96731
2019-02-27T08:01:43.863Z,96726
2019-02-27T08:02:52.709Z,96727
2019-02-27T08:04:02.302Z,96729
2019-02-27T08:05:11.850Z,96733
2019-02-27T08:06:23.403Z,96732
2019-02-27T08:07:31.029Z,96737
2019-02-27T08:08:40.633Z,96735
2019-02-27T08:09:50.259Z,96732
2019-02-27T08:10:59.823Z,96736
2019-02-27T08:12:09.389Z,96734
2019-02-27T08:13:19.943Z,96735
2019-02-27T08:14:30.585Z,96737
2019-02-27T08:15:41.090Z,96733
2019-02-27T08:16:50.659Z,96739
2019-02-27T08:18:01.272Z,96734
2019-02-27T08:19:11.424Z,96737
2019-02-27T08:20:21.368Z,96732
2019-02-27T08:21:30.935Z,96735
2019-02-27T08:22:40.468Z,96731
2019-02-27T08:23:50.031Z,96731
2019-02-27T08:24:59.622Z,96728
2019-02-27T08:26:09.215Z,96722
2019-02-27T08:27:18.768Z,96727
2019-02-27T08:28:28.320Z,96726
2019-02-27T08:29:37.944Z,96725
2019-02-27T08:30:47.480Z,96723
2019-02-27T08:32:00.660Z,96727
2019-02-27T08:33:08.376Z,96727
2019-02-27T08:34:18.158Z,96726
2019-02-27T08:35:27.735Z,96721
2019-02-27T08:36:37.304Z,96725
2019-02-27T08:37:46.905Z,96724
2019-02-27T08:38:57.455Z,96723
2019-02-27T08:40:07.032Z,96725
2019-02-27T08:41:16.610Z,96724
2019-02-27T08:42:26.181Z,96721
2019-02-27T08:43:36.781Z,96723
2019-02-27T08:44:46.655Z,96725
2019-02-27T08:45:55.900Z,96723
2019-02-27T08:47:07.761Z,96714
2019-02-27T08:48:17.402Z,96713
2019-02-27T08:49:25.521Z,96714
2019-02-27T08:50:35.036Z,96712
2019-02-27T08:51:44.592Z,96713
2019-02-27T08:52:54.122Z,96712
2019-02-27T08:54:03.690Z,96706
2019-02-27T08:55:19.041Z,96713
2019-02-27T08:56:23.810Z,96715
2019-02-27T08:57:33.410Z,96714
2019-02-27T08:58:42.953Z,96715
2019-02-27T08:59:52.518Z,96713
2019-02-27T09:01:02.048Z,96711
2019-02-27T09:02:11.625Z,96711
2019-02-27T09:03:21.245Z,96709
2019-02-27T09:04:30.855Z,96705
2019-02-27T09:05:40.419Z,96700
2019-02-27T09:06:49.955Z,96704
2019-02-27T09:08:00.515Z,96706
2019-02-27T09:09:10.078Z,96708
2019-02-27T09:10:23.105Z,96705
2019-02-27T09:11:31.202Z,96707
2019-02-27T09:12:41.734Z,96709
2019-02-27T09:13:52.288Z,96707
2019-02-27T09:15:01.890Z,96704
2019-02-27T09:16:11.419Z,96701
2019-02-27T09:17:20.921Z,96698
2019-02-27T09:18:33.273Z,96696
2019-02-27T09:19:44.787Z,96699
2019-02-27T09:20:50.910Z,96699
2019-02-27T09:21:59.904Z,96697
2019-02-27T09:23:08.381Z,96692
2019-02-27T09:24:17.883Z,96694
2019-02-27T09:25:27.407Z,96692
2019-02-27T09:26:36.942Z,96695
2019-02-27T09:27:46.398Z,96692
2019-02-27T09:28:55.905Z,96693
2019-02-27T09:30:05.428Z,96687
2019-02-27T09:31:15.011Z,96690
2019-02-27T09:32:24.514Z,96684
2019-02-27T09:33:38.636Z,96682
2019-02-27T09:34:43.496Z,96685
2019-02-27T09:35:53.024Z,96681
2019-02-27T09:37:02.528Z,96682
2019-02-27T09:38:12.029Z,96681
2019-02-27T09:39:22.222Z,96682
2019-02-27T09:40:32.046Z,96682
2019-02-27T09:41:45.941Z,96677
2019-02-27T09:42:52.896Z,96673
2019-02-27T09:44:01.552Z,96672
2019-02-27T09:45:11.074Z,96670
2019-02-27T09:46:20.578Z,96676
2019-02-27T09:47:30.071Z,96672
2019-02-27T09:48:39.576Z,96679
2019-02-27T09:49:49.080Z,96680
2019-02-27T09:50:58.604Z,96680
2019-02-27T09:52:08.109Z,96677
2019-02-27T09:53:17.616Z,96672
2019-02-27T09:54:27.129Z,96673
2019-02-27T09:55:36.649Z,96679
2019-02-27T09:56:46.150Z,96677
2019-02-27T09:57:55.652Z,96672
2019-02-27T09:59:05.145Z,96676
2019-02-27T10:00:14.665Z,96674
2019-02-27T10:01:24.172Z,96677
2019-02-27T10:02:34.689Z,96672
2019-02-27T10:03:45.214Z,96672
2019-02-27T10:04:54.691Z,96672
2019-02-27T10:06:05.202Z,96671
2019-02-27T10:07:17.062Z,96674
2019-02-27T10:08:25.181Z,96669
2019-02-27T10:09:34.785Z,96665
2019-02-27T10:10:45.723Z,96665
2019-02-27T10:11:53.176Z,96660
2019-02-27T10:13:03.212Z,96659
2019-02-27T10:14:14.096Z,96660
2019-02-27T10:15:22.500Z,96658
2019-02-27T10:16:34.586Z,96656
2019-02-27T10:17:41.011Z,96652
2019-02-27T10:18:49.607Z,96657
2019-02-27T10:20:02.336Z,96655
2019-02-27T10:21:09.329Z,96652
2019-02-27T10:22:20.167Z,96651
2019-02-27T10:23:30.130Z,96652
2019-02-27T10:24:37.604Z,96645
2019-02-27T10:25:46.595Z,96649
2019-02-27T10:26:57.082Z,96645
2019-02-27T10:28:06.584Z,96648
2019-02-27T10:29:16.085Z,96645
2019-02-27T10:30:25.608Z,96645
2019-02-27T10:31:35.108Z,96641
2019-02-27T10:32:45.142Z,96643
2019-02-27T10:33:54.119Z,96640
2019-02-27T10:35:03.622Z,96639
2019-02-27T10:36:13.144Z,96643
2019-02-27T10:37:22.730Z,96637
2019-02-27T10:38:32.143Z,96633
2019-02-27T10:39:42.635Z,96638
2019-02-27T10:40:52.153Z,96635
2019-02-27T10:42:01.655Z,96633
2019-02-27T10:43:11.155Z,96628
2019-02-27T10:44:20.661Z,96630
2019-02-27T10:45:30.186Z,96626
2019-02-27T10:46:39.689Z,96622
2019-02-27T10:47:49.195Z,96623
2019-02-27T10:48:58.695Z,96623
2019-02-27T10:50:08.197Z,96622
2019-02-27T10:51:17.712Z,96620
2019-02-27T10:52:27.221Z,96616
2019-02-27T10:53:36.722Z,96613
2019-02-27T10:54:46.235Z,96615
2019-02-27T10:55:56.130Z,96617
2019-02-27T10:57:05.948Z,96612
2019-02-27T10:58:14.741Z,96615
2019-02-27T10:59:24.248Z,96615
2019-02-27T11:00:32.758Z,96614
2019-02-27T11:01:42.256Z,96616
2019-02-27T11:02:52.493Z,96613
2019-02-27T11:04:03.094Z,96613
2019-02-27T11:05:10.749Z,96615
2019-02-27T11:06:21.259Z,96611
2019-02-27T11:07:31.734Z,96609
2019-02-27T11:08:41.238Z,96607
2019-02-27T11:09:50.750Z,96604
2019-02-27T11:11:00.266Z,96603
2019-02-27T11:12:10.762Z,96599
2019-02-27T11:13:20.268Z,96598
2019-02-27T11:14:31.963Z,96601
2019-02-27T11:15:41.366Z,96598
2019-02-27T11:16:48.740Z,96599
2019-02-27T11:18:04.117Z,96596
2019-02-27T11:19:08.727Z,96592
2019-02-27T11:20:20.804Z,96596
2019-02-27T11:21:28.703Z,96591
2019-02-27T11:22:38.219Z,96590
2019-02-27T11:23:47.725Z,96590
2019-02-27T11:24:57.246Z,96587
2019-02-27T11:26:06.768Z,96583
2019-02-27T11:27:16.888Z,96582
2019-02-27T11:28:25.774Z,96582
2019-02-27T11:29:35.271Z,96579
2019-02-27T11:30:44.798Z,96575
2019-02-27T11:31:54.299Z,96576
2019-02-27T11:33:03.868Z,96572
2019-02-27T11:34:13.373Z,96567
2019-02-27T11:35:25.019Z,96572
2019-02-27T11:36:32.367Z,96566
2019-02-27T11:37:44.324Z,96563
2019-02-27T11:38:52.364Z,96566
2019-02-27T11:40:05.303Z,96561
2019-02-27T11:41:14.854Z,96564
2019-02-27T11:42:21.838Z,96561
2019-02-27T11:43:32.338Z,96556
2019-02-27T11:44:42.858Z,96557
2019-02-27T11:45:57.448Z,96555
2019-02-27T11:47:02.805Z,96552
2019-02-27T11:48:13.385Z,96556
2019-02-27T11:49:23.880Z,96553
2019-02-27T11:50:33.390Z,96546
2019-02-27T11:51:42.903Z,96552
2019-02-27T11:52:53.405Z,96546
2019-02-27T11:54:04.299Z,96549
2019-02-27T11:55:14.787Z,96549
2019-02-27T11:56:23.925Z,96545
2019-02-27T11:57:33.431Z,96544
2019-02-27T11:58:42.935Z,96535
2019-02-27T11:59:52.437Z,96537
2019-02-27T12:01:01.961Z,96531
2019-02-27T12:02:11.462Z,96528
2019-02-27T12:03:20.970Z,96529
2019-02-27T12:04:30.472Z,96528
2019-02-27T12:05:39.984Z,96531
2019-02-27T12:06:49.500Z,96530
2019-02-27T12:07:59.013Z,96525
2019-02-27T12:09:08.517Z,96520
2019-02-27T12:10:18.022Z,96515
2019-02-27T12:11:27.540Z,96513
2019-02-27T12:12:37.045Z,96513
2019-02-27T12:13:46.550Z,96514
2019-02-27T12:14:57.049Z,96515
2019-02-27T12:16:06.569Z,96514
2019-02-27T12:17:17.078Z,96511
2019-02-27T12:18:27.567Z,96510
2019-02-27T12:19:37.071Z,96508
2019-02-27T12:20:47.564Z,96505
2019-02-27T12:21:59.271Z,96504
2019-02-27T12:23:07.406Z,96504
2019-02-27T12:24:16.313Z,96505
2019-02-27T12:25:27.807Z,96501
2019-02-27T12:26:37.489Z,96500
2019-02-27T12:27:48.885Z,96497
2019-02-27T12:28:54.056Z,96495
2019-02-27T12:30:03.991Z,96495
2019-02-27T12:31:14.346Z,96489
2019-02-27T12:32:22.656Z,96488
2019-02-27T12:33:32.049Z,96487
2019-02-27T12:34:41.562Z,96485
2019-02-27T12:35:51.091Z,96480
2019-02-27T12:37:00.624Z,96482
2019-02-27T12:38:11.484Z,96473
2019-02-27T12:39:20.659Z,96471
2019-02-27T12:40:30.162Z,96468
2019-02-27T12:41:39.675Z,96466
2019-02-27T12:42:49.812Z,96464
2019-02-27T12:43:58.690Z,96461
2019-02-27T12:45:08.195Z,96462
2019-02-27T12:46:17.726Z,96457
2019-02-27T12:47:27.271Z,96456
2019-02-27T12:48:36.782Z,96452
2019-02-27T12:49:47.281Z,96453
2019-02-27T12:50:57.900Z,96450
2019-02-27T12:52:08.931Z,96448
2019-02-27T12:53:20.475Z,96448
2019-02-27T12:54:27.405Z,96446
2019-02-27T12:55:36.438Z,96446
2019-02-27T12:56:45.389Z,96445
2019-02-27T12:57:54.897Z,96443
2019-02-27T12:59:04.408Z,96444
2019-02-27T13:00:13.926Z,96440
2019-02-27T13:01:23.431Z,96439
2019-02-27T13:02:35.756Z,96437
2019-02-27T13:03:43.046Z,96436
2019-02-27T13:04:52.601Z,96435
2019-02-27T13:06:01.686Z,96436
2019-02-27T13:07:11.285Z,96434
2019-02-27T13:08:20.440Z,96432
2019-02-27T13:09:29.994Z,96435
2019-02-27T13:10:39.500Z,96431
2019-02-27T13:11:49.018Z,96430
2019-02-27T13:12:58.522Z,96430
2019-02-27T13:14:08.031Z,96428
2019-02-27T13:15:17.542Z,96429
2019-02-27T13:16:27.044Z,96426
2019-02-27T13:17:36.567Z,96423
2019-02-27T13:18:46.566Z,96424
2019-02-27T13:19:55.594Z,96422
2019-02-27T13:21:06.095Z,96424
2019-02-27T13:22:15.624Z,96420
2019-02-27T13:23:25.127Z,96418
2019-02-27T13:24:34.649Z,96417
2019-02-27T13:25:44.151Z,96418
2019-02-27T13:26:53.661Z,96417
2019-02-27T13:28:03.180Z,96418
2019-02-27T13:29:12.681Z,96420
2019-02-27T13:30:23.198Z,96416
2019-02-27T13:31:32.692Z,96415
2019-02-27T13:32:42.194Z,96415
2019-02-27T13:33:51.698Z,96408
2019-02-27T13:35:01.242Z,96410
2019-02-27T13:36:12.614Z,96408
2019-02-27T13:37:20.251Z,96402
2019-02-27T13:38:29.810Z,96401
2019-02-27T13:39:40.321Z,96399
2019-02-27T13:40:49.825Z,96400
2019-02-27T13:41:59.337Z,96395
2019-02-27T13:43:08.838Z,96392
2019-02-27T13:44:18.363Z,96389
2019-02-27T13:45:27.914Z,96389
2019-02-27T13:46:37.417Z,96386
2019-02-27T13:47:45.922Z,96389
2019-02-27T13:48:55.422Z,96384
2019-02-27T13:50:04.939Z,96383
2019-02-27T13:51:14.448Z,96383
2019-02-27T13:52:25.597Z,96378
2019-02-27T13:53:33.455Z,96378
2019-02-27T13:54:42.959Z,96378
2019-02-27T13:55:52.490Z,96371
2019-02-27T13:57:02.008Z,96368
2019-02-27T13:58:11.499Z,96367
2019-02-27T13:59:21.007Z,96368
2019-02-27T14:00:30.529Z,96365
2019-02-27T14:01:40.030Z,96366
2019-02-27T14:02:49.551Z,96364
2019-02-27T14:03:59.060Z,96362
2019-02-27T14:05:08.578Z,96362
2019-02-27T14:06:18.112Z,96361
2019-02-27T14:07:28.612Z,96359
2019-02-27T14:08:38.119Z,96359
2019-02-27T14:09:47.639Z,96356
2019-02-27T14:10:57.145Z,96355
2019-02-27T14:12:06.656Z,96348
2019-02-27T14:13:16.251Z,96348
2019-02-27T14:14:25.759Z,96349
2019-02-27T14:15:35.273Z,96354
2019-02-27T14:16:44.794Z,96344
2019-02-27T14:17:54.299Z,96343
2019-02-27T14:19:03.810Z,96342
2019-02-27T14:20:13.325Z,96341
2019-02-27T14:21:22.833Z,96337
2019-02-27T14:22:32.348Z,96333
2019-02-27T14:23:42.837Z,96337
2019-02-27T14:24:54.804Z,96334
2019-02-27T14:26:05.323Z,96333
2019-02-27T14:27:14.542Z,96335
2019-02-27T14:28:21.813Z,96330
2019-02-27T14:29:31.295Z,96332
2019-02-27T14:30:40.815Z,96326
2019-02-27T14:31:50.309Z,96325
2019-02-27T14:32:59.932Z,96328
2019-02-27T14:34:09.436Z,96325
2019-02-27T14:35:18.936Z,96327
2019-02-27T14:36:28.468Z,96328
2019-02-27T14:37:37.975Z,96323
2019-02-27T14:38:47.469Z,96323
2019-02-27T14:39:57.970Z,96319
2019-02-27T14:41:11.107Z,96317
2019-02-27T14:42:20.420Z,96319
2019-02-27T14:43:27.939Z,96315
2019-02-27T14:44:37.086Z,96314
2019-02-27T14:45:46.586Z,96318
2019-02-27T14:46:56.180Z,96320
2019-02-27T14:48:05.694Z,96322
2019-02-27T14:49:15.316Z,96314
2019-02-27T14:50:25.765Z,96317
2019-02-27T14:51:36.254Z,96317
2019-02-27T14:52:45.800Z,96319
2019-02-27T14:53:55.897Z,96316
2019-02-27T14:55:04.769Z,96318
2019-02-27T14:56:14.268Z,96313
2019-02-27T14:57:23.772Z,96310